SBCJ Informações do Aeroporto

Informações da Pista
Pista 10 Comprimento 6562 ft Largura 148 ft
Elevação 0 ft Limite 0 ft Heading 0
Pista 28 Comprimento 6562 ft Largura 148 ft
Elevação 0 ft Limite 0 ft Heading 0
Frequências do Aeroporto
Tipo AFIS Nome RDO Frequência 131.7 MHZ
Navaids do Aeroporto
Tipo VOR-DME Nome Carajas Frequência 112400 KHZ
Tipo NDB Nome Carajas Frequência 170 KHZ
Informações meteorológicas do aeroporto e NOTAM
ADDS - METARS form results

(2329 UTC 30 May 2020)
Data provider http://aviationweather.gov/metar/data/
 
Forecast for: SBCJ (CARAJAS/MARABA , BR)
Text: TAF SBCJ 301500Z 3018/3106 15005KT 9999 SCT025 TX29/3018Z TN23/3106Z
Forecast period: 1800 to 1900 UTC 30 May 2020
Forecast type: FROM: standard forecast or significant change
Winds: from the SSE (150 degrees) at 6 MPH (5 knots; 2.6 m/s)
Visibility: 6 or more miles 10+ km)
Ceiling: at least 12,000 feet AGL
Clouds: scattered clouds at 2500 feet AGL
Weather: no significant weather forecast for this period
Text: BECMG 3019/3021 CAVOK RMK PEB
Forecast period: 1900 UTC 30 May 2020 to 0600 UTC 31 May 2020
Forecast type: BECOMING: Conditions expected to become as follows by 2100 UTC 30 May 2020
Winds: from the SSE (150 degrees) at 6 MPH (5 knots; 2.6 m/s)
Visibility: 6 or more miles 10+ km)
Ceiling: unknown
Clouds: missing
Weather: NSW  (no significant weather)